createdAt,value
2018-11-26T00:00:53.745Z,100449.66
2018-11-26T00:03:21.899Z,100445.62
2018-11-26T00:05:50.028Z,100443.36
2018-11-26T00:08:18.199Z,100443.58
2018-11-26T00:11:28.764Z,100444.41
2018-11-26T00:13:57.308Z,100449.77
2018-11-26T00:16:25.485Z,100439.64
2018-11-26T00:18:53.691Z,100441.68
2018-11-26T00:21:21.860Z,100443.83
2018-11-26T00:23:50.004Z,100438.21
2018-11-26T00:26:18.163Z,100440.84
2018-11-26T00:28:46.428Z,100443.94
2018-11-26T00:31:14.589Z,100444.30
2018-11-26T00:33:42.811Z,100435.59
2018-11-26T00:36:10.992Z,100434.53
2018-11-26T00:38:39.135Z,100442.30
2018-11-26T00:41:07.338Z,100439.20
2018-11-26T00:43:35.501Z,100439.92
2018-11-26T00:46:03.702Z,100439.92
2018-11-26T00:48:31.825Z,100441.13
2018-11-26T00:51:00.005Z,100439.34
2018-11-26T00:53:28.181Z,100432.30
2018-11-26T00:55:56.342Z,100429.56
2018-11-26T00:58:24.495Z,100428.58
2018-11-26T01:00:52.701Z,100427.27
2018-11-26T01:03:20.915Z,100422.38
2018-11-26T01:05:49.165Z,100414.50
2018-11-26T01:08:17.319Z,100422.27
2018-11-26T01:10:45.504Z,100415.22
2018-11-26T01:13:13.675Z,100421.42
2018-11-26T01:15:41.981Z,100423.22
2018-11-26T01:18:10.140Z,100425.37
2018-11-26T01:20:38.299Z,100430.63
2018-11-26T01:23:06.520Z,100432.88
2018-11-26T01:25:34.656Z,100427.63
2018-11-26T01:28:02.829Z,100420.70
2018-11-26T01:30:31.091Z,100426.79
2018-11-26T01:32:59.271Z,100427.52
2018-11-26T01:35:27.432Z,100428.47
2018-11-26T01:37:55.629Z,100433.61
2018-11-26T01:40:32.273Z,100436.71
2018-11-26T01:43:00.471Z,100437.30
2018-11-26T01:45:28.659Z,100434.20
2018-11-26T01:47:56.915Z,100434.20
2018-11-26T01:50:25.129Z,100442.08
2018-11-26T01:52:53.368Z,100436.45
2018-11-26T01:55:21.553Z,100429.56
2018-11-26T01:57:49.687Z,100441.38
2018-11-26T02:00:19.935Z,100444.01
2018-11-26T02:02:48.123Z,100445.80
2018-11-26T02:05:16.424Z,100436.71
2018-11-26T02:07:44.585Z,100443.28
2018-11-26T02:10:14.285Z,100442.44
2018-11-26T02:12:42.435Z,100443.75
2018-11-26T02:15:12.796Z,100443.39
2018-11-26T02:17:41.189Z,100443.28
2018-11-26T02:20:10.324Z,100437.77
2018-11-26T02:22:38.564Z,100434.89
2018-11-26T02:25:07.803Z,100435.84
2018-11-26T02:27:36.114Z,100432.27
2018-11-26T02:30:04.403Z,100433.22
2018-11-26T02:32:32.557Z,100430.22
2018-11-26T02:35:00.703Z,100430.22
2018-11-26T02:37:28.869Z,100431.91
2018-11-26T02:39:57.032Z,100426.28
2018-11-26T02:42:25.220Z,100431.06
2018-11-26T02:44:53.412Z,100434.16
2018-11-26T02:47:21.583Z,100428.18
2018-11-26T02:49:49.751Z,100431.28
2018-11-26T02:52:17.903Z,100427.45
2018-11-26T02:54:46.091Z,100425.19
2018-11-26T02:57:14.239Z,100426.98
2018-11-26T02:59:42.404Z,100422.81
2018-11-26T03:02:10.579Z,100429.38
2018-11-26T03:04:38.803Z,100432.48
2018-11-26T03:07:06.956Z,100436.89
2018-11-26T03:09:35.112Z,100437.12
2018-11-26T03:12:03.286Z,100432.45
2018-11-26T03:14:31.500Z,100436.75
2018-11-26T03:16:59.708Z,100437.12
2018-11-26T03:19:27.933Z,100441.78
2018-11-26T03:21:56.312Z,100437.37
2018-11-26T03:24:24.488Z,100439.41
2018-11-26T03:26:52.663Z,100435.11
2018-11-26T03:29:20.836Z,100436.89
2018-11-26T03:31:48.971Z,100434.97
2018-11-26T03:34:17.200Z,100440.22
2018-11-26T03:36:45.356Z,100439.74
2018-11-26T03:39:13.543Z,100435.80
2018-11-26T03:41:41.763Z,100436.64
2018-11-26T03:44:09.979Z,100433.06
2018-11-26T03:46:38.128Z,100437.37
2018-11-26T03:49:06.620Z,100439.64
2018-11-26T03:51:34.787Z,100447.30
2018-11-26T03:54:02.929Z,100440.73
2018-11-26T03:56:31.154Z,100447.30
2018-11-26T03:58:59.365Z,100447.66
2018-11-26T04:01:27.595Z,100444.56
2018-11-26T04:03:55.790Z,100439.78
2018-11-26T04:06:23.944Z,100442.88
2018-11-26T04:08:52.223Z,100445.62
2018-11-26T04:11:20.393Z,100447.88
2018-11-26T04:13:48.672Z,100449.20
2018-11-26T04:16:16.830Z,100444.41
2018-11-26T04:18:44.977Z,100450.61
2018-11-26T04:21:13.112Z,100450.25
2018-11-26T04:23:41.268Z,100441.67
2018-11-26T04:26:09.432Z,100446.45
2018-11-26T04:28:37.753Z,100447.63
2018-11-26T04:31:06.060Z,100449.08
2018-11-26T04:33:34.207Z,100447.15
2018-11-26T04:36:02.459Z,100444.16
2018-11-26T04:38:30.649Z,100444.16
2018-11-26T04:40:58.841Z,100440.22
2018-11-26T04:43:27.026Z,100435.33
2018-11-26T04:45:55.348Z,100436.28
2018-11-26T04:48:23.617Z,100433.32
2018-11-26T04:50:51.824Z,100435.95
2018-11-26T04:53:19.988Z,100433.32
2018-11-26T04:55:48.133Z,100429.97
2018-11-26T04:58:16.332Z,100433.54
2018-11-26T05:00:44.476Z,100428.66
2018-11-26T05:03:12.777Z,100427.81
2018-11-26T05:05:41.081Z,100424.83
2018-11-26T05:08:09.417Z,100425.30
2018-11-26T05:10:37.599Z,100426.25
2018-11-26T05:13:06.076Z,100428.88
2018-11-26T05:15:34.305Z,100432.08
2018-11-26T05:18:02.512Z,100431.83
2018-11-26T05:20:30.732Z,100430.04
2018-11-26T05:22:59.003Z,100431.83
2018-11-26T05:25:27.170Z,100426.21
2018-11-26T05:27:55.535Z,100421.06
2018-11-26T05:30:23.716Z,100422.85
2018-11-26T05:32:51.912Z,100425.59
2018-11-26T05:35:20.241Z,100427.88
2018-11-26T05:37:48.428Z,100431.81
2018-11-26T05:40:16.711Z,100427.15
2018-11-26T05:42:44.892Z,100431.09
2018-11-26T05:45:17.120Z,100430.14
2018-11-26T05:47:45.447Z,100431.56
2018-11-26T05:50:14.467Z,100432.03
2018-11-26T05:52:42.708Z,100436.34
2018-11-26T05:55:13.764Z,100427.73
2018-11-26T05:57:41.963Z,100424.16
2018-11-26T06:00:12.169Z,100422.48
2018-11-26T06:02:40.629Z,100423.91
2018-11-26T06:05:09.164Z,100432.98
2018-11-26T06:07:37.463Z,100428.09
2018-11-26T06:10:08.986Z,100432.03
2018-11-26T06:12:37.163Z,100437.29
2018-11-26T06:15:10.907Z,100432.52
2018-11-26T06:17:39.329Z,100432.52
2018-11-26T06:20:12.109Z,100426.89
2018-11-26T06:22:41.760Z,100432.14
2018-11-26T06:25:11.864Z,100433.56
2018-11-26T06:27:40.941Z,100437.50
2018-11-26T06:30:12.984Z,100442.75
2018-11-26T06:32:41.633Z,100447.17
2018-11-26T06:35:18.827Z,100450.16
2018-11-26T06:37:47.138Z,100456.61
2018-11-26T06:40:15.417Z,100457.34
2018-11-26T06:42:43.634Z,100458.91
2018-11-26T06:45:16.336Z,100463.55
2018-11-26T06:47:49.415Z,100468.70
2018-11-26T06:50:18.719Z,100471.11
2018-11-26T06:52:47.380Z,100478.77
2018-11-26T06:55:16.855Z,100477.45
2018-11-26T06:57:45.062Z,100483.07
2018-11-26T07:00:16.262Z,100485.59
2018-11-26T07:02:44.591Z,100482.85
2018-11-26T07:05:14.201Z,100489.31
2018-11-26T07:07:42.998Z,100493.00
2018-11-26T07:10:12.354Z,100494.20
2018-11-26T07:12:40.686Z,100482.39
2018-11-26T07:15:11.902Z,100489.32
2018-11-26T07:17:40.145Z,100488.73
2018-11-26T07:20:12.505Z,100494.72
2018-11-26T07:22:40.773Z,100495.56
2018-11-26T07:25:16.225Z,100501.17
2018-11-26T07:27:45.740Z,100499.02
2018-11-26T07:30:15.323Z,100499.02
2018-11-26T07:32:43.924Z,100515.63
2018-11-26T07:35:12.748Z,100513.47
2018-11-26T07:37:41.350Z,100507.38
2018-11-26T07:40:15.477Z,100513.47
2018-11-26T07:42:46.389Z,100519.09
2018-11-26T07:45:14.877Z,100516.83
2018-11-26T07:47:43.096Z,100519.83
2018-11-26T07:50:12.684Z,100525.44
2018-11-26T07:52:40.972Z,100531.39
2018-11-26T07:55:10.839Z,100530.45
2018-11-26T07:57:38.992Z,100533.80
2018-11-26T08:00:11.608Z,100535.84
2018-11-26T08:02:39.858Z,100537.16
2018-11-26T08:05:09.752Z,100530.48
2018-11-26T08:07:37.941Z,100542.20
2018-11-26T08:10:10.352Z,100543.04
2018-11-26T08:12:38.610Z,100543.88
2018-11-26T08:15:09.767Z,100544.61
2018-11-26T08:17:37.903Z,100550.59
2018-11-26T08:20:07.180Z,100550.93
2018-11-26T08:22:35.311Z,100549.03
2018-11-26T08:25:03.607Z,100551.55
2018-11-26T08:27:31.823Z,100557.94
2018-11-26T08:30:00.097Z,100560.71
2018-11-26T08:32:34.034Z,100560.60
2018-11-26T08:34:56.525Z,100559.66
2018-11-26T08:37:30.063Z,100567.28
2018-11-26T08:40:03.671Z,100569.44
2018-11-26T08:42:37.926Z,100571.84
2018-11-26T08:45:14.949Z,100574.62
2018-11-26T08:47:43.160Z,100577.51
2018-11-26T08:50:11.420Z,100581.34
2018-11-26T08:52:39.567Z,100582.41
2018-11-26T08:55:08.483Z,100585.87
2018-11-26T08:57:36.632Z,100587.34
2018-11-26T09:00:05.409Z,100591.64
2018-11-26T09:02:37.717Z,100603.14
2018-11-26T09:05:23.750Z,100602.92
2018-11-26T09:07:44.748Z,100604.61
2018-11-26T09:10:12.901Z,100603.07
2018-11-26T09:12:41.047Z,100604.52
2018-11-26T09:15:10.255Z,100604.05
2018-11-26T09:17:38.516Z,100609.09
2018-11-26T09:20:09.690Z,100615.08
2018-11-26T09:22:38.004Z,100618.44
2018-11-26T09:25:09.392Z,100615.58
2018-11-26T09:27:37.562Z,100630.27
2018-11-26T09:30:12.616Z,100635.05
2018-11-26T09:32:41.526Z,100629.80
2018-11-26T09:35:13.418Z,100635.31
2018-11-26T09:37:41.760Z,100639.73
2018-11-26T09:40:13.461Z,100636.15
2018-11-26T09:42:42.225Z,100641.30
2018-11-26T09:45:12.060Z,100639.63
2018-11-26T09:47:40.318Z,100635.20
2018-11-26T09:50:11.358Z,100641.78
2018-11-26T09:52:39.662Z,100640.45
2018-11-26T09:55:08.423Z,100636.52
2018-11-26T09:57:36.740Z,100643.93
2018-11-26T10:00:08.556Z,100637.46
2018-11-26T10:02:36.825Z,100644.52
2018-11-26T10:05:08.128Z,100649.19
2018-11-26T10:07:37.770Z,100643.82
2018-11-26T10:10:08.100Z,100644.19
2018-11-26T10:12:36.688Z,100646.23
2018-11-26T10:15:21.260Z,100649.95
2018-11-26T10:17:49.653Z,100638.84
2018-11-26T10:20:17.872Z,100647.42
2018-11-26T10:22:46.652Z,100646.47
2018-11-26T10:25:16.499Z,100646.00
2018-11-26T10:27:44.705Z,100640.63
2018-11-26T10:30:16.077Z,100645.77
2018-11-26T10:32:44.862Z,100645.30
2018-11-26T10:35:14.719Z,100648.88
2018-11-26T10:37:43.008Z,100644.34
2018-11-26T10:40:12.379Z,100643.03
2018-11-26T10:42:40.570Z,100642.44
2018-11-26T10:45:11.665Z,100643.53
2018-11-26T10:47:39.869Z,100647.22
2018-11-26T10:50:10.230Z,100646.74
2018-11-26T10:52:38.454Z,100645.42
2018-11-26T10:55:09.652Z,100650.94
2018-11-26T10:57:37.821Z,100648.08
2018-11-26T11:00:13.385Z,100648.81
2018-11-26T11:02:42.541Z,100648.81
2018-11-26T11:05:10.906Z,100642.70
2018-11-26T11:07:39.451Z,100648.81
2018-11-26T11:10:13.731Z,100648.08
2018-11-26T11:12:41.912Z,100648.81
2018-11-26T11:15:12.229Z,100648.22
2018-11-26T11:17:40.737Z,100652.16
2018-11-26T11:20:15.124Z,100656.12
2018-11-26T11:22:43.384Z,100654.55
2018-11-26T11:25:13.123Z,100651.19
2018-11-26T11:27:41.370Z,100656.68
2018-11-26T11:30:14.079Z,100657.75
2018-11-26T11:32:42.283Z,100653.58
2018-11-26T11:35:11.823Z,100654.64
2018-11-26T11:37:40.397Z,100655.97
2018-11-26T11:40:14.150Z,100657.87
2018-11-26T11:42:42.348Z,100655.83
2018-11-26T11:45:11.822Z,100652.47
2018-11-26T11:47:40.051Z,100657.73
2018-11-26T11:50:11.335Z,100656.52
2018-11-26T11:52:39.534Z,100654.73
2018-11-26T11:56:15.382Z,100651.15
2018-11-26T11:58:43.565Z,100651.15
2018-11-26T12:01:11.906Z,100651.88
2018-11-26T12:03:40.117Z,100644.70
2018-11-26T12:06:08.281Z,100646.75
2018-11-26T12:08:36.526Z,100646.16
2018-11-26T12:11:04.811Z,100645.69
2018-11-26T12:13:33.006Z,100653.11
2018-11-26T12:16:01.288Z,100653.58
2018-11-26T12:18:29.514Z,100650.84
2018-11-26T12:20:57.715Z,100650.47
2018-11-26T12:23:25.989Z,100650.84
2018-11-26T12:25:54.197Z,100652.01
2018-11-26T12:28:22.482Z,100651.89
2018-11-26T12:30:50.693Z,100652.62
2018-11-26T12:33:18.881Z,100653.46
2018-11-26T12:35:47.181Z,100657.66
2018-11-26T12:38:15.405Z,100656.48
2018-11-26T12:40:43.757Z,100653.84
2018-11-26T12:43:11.969Z,100653.37
2018-11-26T12:45:40.212Z,100651.58
2018-11-26T12:48:08.412Z,100657.20
2018-11-26T12:50:36.993Z,100661.27
2018-11-26T12:53:05.300Z,100659.84
2018-11-26T12:55:33.974Z,100654.58
2018-11-26T12:58:02.385Z,100656.58
2018-11-26T13:00:30.591Z,100655.03
2018-11-26T13:03:06.170Z,100655.99
2018-11-26T13:05:34.451Z,100653.84
2018-11-26T13:08:02.625Z,100649.41
2018-11-26T13:10:30.874Z,100652.17
2018-11-26T13:12:59.157Z,100650.99
2018-11-26T13:15:28.386Z,100644.66
2018-11-26T13:17:56.612Z,100650.40
2018-11-26T13:20:26.576Z,100643.81
2018-11-26T13:22:55.018Z,100646.09
2018-11-26T13:25:24.414Z,100643.94
2018-11-26T13:27:54.522Z,100649.31
2018-11-26T13:30:23.862Z,100645.36
2018-11-26T13:32:54.156Z,100646.31
2018-11-26T13:35:22.297Z,100654.22
2018-11-26T13:37:50.496Z,100651.47
2018-11-26T13:40:19.349Z,100651.95
2018-11-26T13:42:47.686Z,100654.58
2018-11-26T13:45:29.425Z,100651.59
2018-11-26T13:47:57.649Z,100661.89
2018-11-26T13:50:28.161Z,100665.36
2018-11-26T13:52:56.680Z,100660.20
2018-11-26T13:55:24.941Z,100663.07
2018-11-26T13:57:53.154Z,100669.41
2018-11-26T14:00:21.435Z,100668.56
2018-11-26T14:02:49.639Z,100669.16
2018-11-26T14:05:18.576Z,100670.11
2018-11-26T14:07:47.411Z,100673.70
2018-11-26T14:10:16.941Z,100668.91
2018-11-26T14:12:46.024Z,100673.84
2018-11-26T14:15:15.373Z,100676.23
2018-11-26T14:17:43.621Z,100675.50
2018-11-26T14:20:14.078Z,100677.17
2018-11-26T14:22:42.348Z,100683.39
2018-11-26T14:25:14.676Z,100688.66
2018-11-26T14:27:43.395Z,100691.55
2018-11-26T14:30:15.056Z,100697.65
2018-11-26T14:32:43.306Z,100699.55
2018-11-26T14:35:12.165Z,100697.52
2018-11-26T14:37:39.742Z,100697.98
2018-11-26T14:40:13.335Z,100693.79
2018-11-26T14:42:41.650Z,100695.22
2018-11-26T14:45:11.345Z,100698.44
2018-11-26T14:47:39.709Z,100698.22
2018-11-26T14:50:13.452Z,100701.91
2018-11-26T14:52:42.525Z,100704.55
2018-11-26T14:55:13.134Z,100706.22
2018-11-26T14:57:41.347Z,100706.34
2018-11-26T15:00:13.633Z,100708.23
2018-11-26T15:02:41.833Z,100704.87
2018-11-26T15:05:10.257Z,100709.78
2018-11-26T15:07:38.514Z,100708.09
2018-11-26T15:10:08.833Z,100709.41
2018-11-26T15:12:36.976Z,100707.73
2018-11-26T15:15:07.313Z,100714.90
2018-11-26T15:17:35.461Z,100710.59
2018-11-26T15:20:04.397Z,100714.64
2018-11-26T15:22:32.619Z,100716.47
2018-11-26T15:25:00.760Z,100720.16
2018-11-26T15:27:29.015Z,100721.22
2018-11-26T15:29:57.167Z,100716.33
2018-11-26T15:32:25.332Z,100717.64
2018-11-26T15:34:53.485Z,100726.48
2018-11-26T15:37:21.659Z,100717.60
2018-11-26T15:39:49.768Z,100721.66
2018-11-26T15:42:17.929Z,100728.71
2018-11-26T15:44:46.097Z,100728.23
2018-11-26T15:47:14.252Z,100728.75
2018-11-26T15:49:42.537Z,100731.02
2018-11-26T15:52:10.714Z,100732.70
2018-11-26T15:54:38.905Z,100738.44
2018-11-26T15:57:07.049Z,100734.02
2018-11-26T15:59:35.233Z,100741.06
2018-11-26T16:02:03.444Z,100734.59
2018-11-26T16:04:31.624Z,100737.81
2018-11-26T16:06:59.778Z,100740.45
2018-11-26T16:09:27.925Z,100742.34
2018-11-26T16:11:56.085Z,100745.92
2018-11-26T16:14:24.260Z,100748.34
2018-11-26T16:16:52.434Z,100743.80
2018-11-26T16:19:20.662Z,100749.17
2018-11-26T16:21:48.828Z,100745.81
2018-11-26T16:24:17.001Z,100748.81
2018-11-26T16:26:45.198Z,100753.27
2018-11-26T16:29:13.361Z,100749.00
2018-11-26T16:31:41.553Z,100758.20
2018-11-26T16:34:09.701Z,100760.00
2018-11-26T16:36:37.924Z,100763.58
2018-11-26T16:39:08.339Z,100761.06
2018-11-26T16:41:36.485Z,100760.33
2018-11-26T16:44:04.706Z,100766.17
2018-11-26T16:46:32.946Z,100761.49
2018-11-26T16:49:01.100Z,100766.23
2018-11-26T16:51:29.300Z,100770.81
2018-11-26T16:53:57.458Z,100767.59
2018-11-26T16:56:25.705Z,100774.22
2018-11-26T16:58:53.892Z,100776.01
2018-11-26T17:01:22.094Z,100775.75
2018-11-26T17:03:50.334Z,100778.59
2018-11-26T17:06:18.524Z,100777.50
2018-11-26T17:08:46.705Z,100780.23
2018-11-26T17:11:14.849Z,100784.91
2018-11-26T17:13:43.074Z,100788.97
2018-11-26T17:16:11.382Z,100792.33
2018-11-26T17:18:39.538Z,100799.95
2018-11-26T17:21:07.681Z,100795.17
2018-11-26T17:23:35.829Z,100798.75
2018-11-26T17:26:04.017Z,100808.31
2018-11-26T17:28:32.280Z,100801.59
2018-11-26T17:31:00.545Z,100800.02
2018-11-26T17:33:28.732Z,100806.22
2018-11-26T17:35:56.901Z,100809.44
2018-11-26T17:38:25.118Z,100804.89
2018-11-26T17:40:53.320Z,100810.00
2018-11-26T17:43:21.539Z,100815.95
2018-11-26T17:45:49.746Z,100823.48
2018-11-26T17:48:17.985Z,100823.63
2018-11-26T17:50:46.184Z,100838.58
2018-11-26T17:53:18.563Z,100834.16
2018-11-26T17:55:53.039Z,100840.37
2018-11-26T17:58:22.541Z,100844.68
2018-11-26T18:00:54.320Z,100843.20
2018-11-26T18:03:22.498Z,100845.58
2018-11-26T18:05:50.681Z,100850.20
2018-11-26T18:08:19.889Z,100853.45
2018-11-26T18:10:48.056Z,100852.34
2018-11-26T18:13:16.277Z,100856.39
2018-11-26T18:15:44.507Z,100862.86
2018-11-26T18:18:15.304Z,100860.02
2018-11-26T18:20:43.730Z,100860.13
2018-11-26T18:23:12.077Z,100862.86
2018-11-26T18:25:40.583Z,100869.64
2018-11-26T18:28:09.961Z,100870.96
2018-11-26T18:30:40.793Z,100876.80
2018-11-26T18:33:09.087Z,100873.70
2018-11-26T18:35:37.730Z,100883.00
2018-11-26T18:38:06.887Z,100879.91
2018-11-26T18:40:36.059Z,100884.89
2018-11-26T18:43:04.263Z,100883.95
2018-11-26T18:45:32.487Z,100888.47
2018-11-26T18:48:00.665Z,100891.70
2018-11-26T18:50:29.303Z,100898.86
2018-11-26T18:52:58.053Z,100902.06
2018-11-26T18:55:26.250Z,100905.06
2018-11-26T18:57:54.506Z,100903.85
2018-11-26T19:00:27.053Z,100904.05
2018-11-26T19:02:55.769Z,100906.42
2018-11-26T19:05:23.921Z,100911.87
2018-11-26T19:07:52.132Z,100918.69
2018-11-26T19:10:22.342Z,100919.39
2018-11-26T19:12:55.429Z,100916.77
2018-11-26T19:15:26.761Z,100915.95
2018-11-26T19:17:57.082Z,100923.00
2018-11-26T19:20:25.261Z,100926.67
2018-11-26T19:22:53.417Z,100925.94
2018-11-26T19:25:21.593Z,100927.72
2018-11-26T19:27:49.993Z,100933.92
2018-11-26T19:30:22.851Z,100931.49
2018-11-26T19:32:46.630Z,100932.81
2018-11-26T19:35:15.621Z,100936.38
2018-11-26T19:37:43.900Z,100947.64
2018-11-26T19:40:13.317Z,100947.27
2018-11-26T19:42:42.510Z,100953.47
2018-11-26T19:45:13.161Z,100958.25
2018-11-26T19:47:41.409Z,100957.88
2018-11-26T19:50:11.137Z,100953.09
2018-11-26T19:52:39.364Z,100955.72
2018-11-26T19:55:16.224Z,100959.67
2018-11-26T19:57:45.137Z,100959.56
2018-11-26T20:00:24.164Z,100963.98
2018-11-26T20:03:26.580Z,100960.14
2018-11-26T20:06:25.660Z,100959.87
2018-11-26T20:08:56.843Z,100967.41
2018-11-26T20:11:25.101Z,100966.30
2018-11-26T20:13:53.259Z,100973.81
2018-11-26T20:16:24.305Z,100984.80
2018-11-26T20:18:52.492Z,100977.28
2018-11-26T20:21:20.657Z,100989.95
2018-11-26T20:23:48.857Z,100992.02
2018-11-26T20:26:17.058Z,100997.64
2018-11-26T20:28:45.268Z,100995.20
2018-11-26T20:31:13.453Z,100995.78
2018-11-26T20:33:41.692Z,100996.25
2018-11-26T20:36:11.545Z,101001.98
2018-11-26T20:38:39.752Z,100998.57
2018-11-26T20:41:09.494Z,100999.52
2018-11-26T20:43:37.689Z,101008.71
2018-11-26T20:46:06.118Z,101010.97
2018-11-26T20:48:34.338Z,101010.02
2018-11-26T20:51:02.541Z,101014.91
2018-11-26T20:53:31.077Z,101015.84
2018-11-26T20:55:59.885Z,101019.79
2018-11-26T20:58:28.153Z,101012.48
2018-11-26T21:00:56.364Z,101015.57
2018-11-26T21:03:24.644Z,101014.73
2018-11-26T21:05:52.953Z,101018.33
2018-11-26T21:08:21.173Z,101019.64
2018-11-26T21:10:49.496Z,101019.64
2018-11-26T21:13:17.891Z,101020.58
2018-11-26T21:15:46.562Z,101018.67
2018-11-26T21:18:14.821Z,101018.20
2018-11-26T21:20:45.856Z,101018.67
2018-11-26T21:23:19.449Z,101027.40
2018-11-26T21:25:47.777Z,101029.19
2018-11-26T21:28:16.011Z,101030.16
2018-11-26T21:30:44.249Z,101032.51
2018-11-26T21:33:12.588Z,101029.98
2018-11-26T21:35:40.822Z,101034.02
2018-11-26T21:38:10.477Z,101038.89
2018-11-26T21:40:39.486Z,101042.09
2018-11-26T21:43:08.512Z,101043.41
2018-11-26T21:45:42.841Z,101044.44
2018-11-26T21:48:11.037Z,101045.00
2018-11-26T21:50:39.234Z,101043.69
2018-11-26T21:53:07.996Z,101047.25
2018-11-26T21:55:36.200Z,101042.59
2018-11-26T21:58:04.417Z,101042.22
2018-11-26T22:00:32.980Z,101042.59
2018-11-26T22:03:06.589Z,101051.80
2018-11-26T22:05:34.822Z,101054.89
2018-11-26T22:08:03.191Z,101061.55
2018-11-26T22:10:31.409Z,101056.86
2018-11-26T22:12:59.748Z,101059.02
2018-11-26T22:15:27.945Z,101057.70
2018-11-26T22:17:56.137Z,101067.75
2018-11-26T22:20:25.694Z,101070.38
2018-11-26T22:22:53.893Z,101069.06
2018-11-26T22:25:22.166Z,101073.00
2018-11-26T22:27:50.957Z,101074.31
2018-11-26T22:30:21.275Z,101071.31
2018-11-26T22:32:49.462Z,101085.77
2018-11-26T22:35:17.694Z,101081.91
2018-11-26T22:37:45.881Z,101079.85
2018-11-26T22:40:20.151Z,101080.70
2018-11-26T22:42:48.470Z,101082.95
2018-11-26T22:45:21.320Z,101096.45
2018-11-26T22:47:51.834Z,101096.83
2018-11-26T22:50:20.003Z,101101.99
2018-11-26T22:52:48.210Z,101098.89
2018-11-26T22:55:16.465Z,101098.42
2018-11-26T22:57:45.472Z,101102.46
2018-11-26T23:00:15.980Z,101105.94
2018-11-26T23:02:44.238Z,101101.70
2018-11-26T23:05:12.424Z,101101.70
2018-11-26T23:07:41.192Z,101105.56
2018-11-26T23:10:09.797Z,101111.66
2018-11-26T23:12:37.973Z,101109.97
2018-11-26T23:15:09.220Z,101108.28
2018-11-26T23:17:37.377Z,101113.53
2018-11-26T23:20:08.344Z,101113.16
2018-11-26T23:22:36.525Z,101114.47
2018-11-26T23:25:05.512Z,101119.25
2018-11-26T23:27:33.729Z,101110.91
2018-11-26T23:30:01.993Z,101121.03
2018-11-26T23:32:30.160Z,101115.41
2018-11-26T23:34:58.333Z,101125.16
2018-11-26T23:37:26.484Z,101120.97
2018-11-26T23:39:54.721Z,101126.22
2018-11-26T23:42:22.889Z,101126.22
2018-11-26T23:44:51.063Z,101125.84
2018-11-26T23:47:19.231Z,101126.78
2018-11-26T23:49:47.382Z,101128.56
2018-11-26T23:52:15.581Z,101122.94
2018-11-26T23:54:43.801Z,101124.25
2018-11-26T23:57:11.964Z,101118.25
2018-11-26T23:59:40.121Z,101123.59
